sensor_id;sensor_type;location;lat;lon;timestamp;P1;P2;P0
77692;PMS5003;66984;47.404;18.836;2023-03-22T00:00:57;20.50;19.00;11.00
77692;PMS5003;66984;47.404;18.836;2023-03-22T00:01:59;25.50;24.50;15.00
77692;PMS5003;66984;47.404;18.836;2023-03-22T00:03:03;31.50;27.00;16.00
77692;PMS5003;66984;47.404;18.836;2023-03-22T00:04:06;31.50;28.00;18.00
77692;PMS5003;66984;47.404;18.836;2023-03-22T00:05:09;32.00;28.50;18.75
77692;PMS5003;66984;47.404;18.836;2023-03-22T00:06:12;37.00;31.50;19.00
77692;PMS5003;66984;47.404;18.836;2023-03-22T00:07:15;32.50;28.75;18.00
77692;PMS5003;66984;47.404;18.836;2023-03-22T00:08:18;30.00;27.00;18.00
77692;PMS5003;66984;47.404;18.836;2023-03-22T00:09:20;30.00;27.00;17.75
77692;PMS5003;66984;47.404;18.836;2023-03-22T00:10:24;30.50;27.00;18.00
77692;PMS5003;66984;47.404;18.836;2023-03-22T00:11:32;30.50;27.00;18.00
77692;PMS5003;66984;47.404;18.836;2023-03-22T00:12:35;31.75;27.75;18.00
77692;PMS5003;66984;47.404;18.836;2023-03-22T00:13:38;31.00;28.00;18.00
77692;PMS5003;66984;47.404;18.836;2023-03-22T00:14:44;29.00;26.00;18.00
77692;PMS5003;66984;47.404;18.836;2023-03-22T00:15:46;29.50;26.25;18.00
77692;PMS5003;66984;47.404;18.836;2023-03-22T00:16:50;44.50;36.75;25.50
77692;PMS5003;66984;47.404;18.836;2023-03-22T00:17:53;53.25;43.00;30.75
77692;PMS5003;66984;47.404;18.836;2023-03-22T00:18:55;58.00;50.00;35.00
77692;PMS5003;66984;47.404;18.836;2023-03-22T00:19:58;61.00;53.00;36.50
77692;PMS5003;66984;47.404;18.836;2023-03-22T00:21:01;59.00;50.75;35.50
77692;PMS5003;66984;47.404;18.836;2023-03-22T00:22:03;54.50;45.25;30.00
77692;PMS5003;66984;47.404;18.836;2023-03-22T00:23:07;51.00;41.25;27.00
77692;PMS5003;66984;47.404;18.836;2023-03-22T00:24:10;50.50;40.50;27.00
77692;PMS5003;66984;47.404;18.836;2023-03-22T00:25:14;50.50;40.50;28.00
77692;PMS5003;66984;47.404;18.836;2023-03-22T00:26:17;50.50;41.00;27.00
77692;PMS5003;66984;47.404;18.836;2023-03-22T00:27:20;54.00;43.00;28.00
77692;PMS5003;66984;47.404;18.836;2023-03-22T00:28:22;51.00;40.75;26.00
77692;PMS5003;66984;47.404;18.836;2023-03-22T00:29:25;46.00;38.00;25.00
77692;PMS5003;66984;47.404;18.836;2023-03-22T00:30:28;47.50;38.00;25.00
77692;PMS5003;66984;47.404;18.836;2023-03-22T00:31:31;45.50;38.00;25.00
77692;PMS5003;66984;47.404;18.836;2023-03-22T00:32:34;43.00;35.00;24.00
77692;PMS5003;66984;47.404;18.836;2023-03-22T00:33:37;43.00;34.50;24.00
77692;PMS5003;66984;47.404;18.836;2023-03-22T00:34:40;40.25;33.25;23.00
77692;PMS5003;66984;47.404;18.836;2023-03-22T00:35:47;39.00;32.00;22.00
77692;PMS5003;66984;47.404;18.836;2023-03-22T00:36:53;34.50;30.00;21.00
77692;PMS5003;66984;47.404;18.836;2023-03-22T00:37:57;34.00;30.00;20.00
77692;PMS5003;66984;47.404;18.836;2023-03-22T00:39:07;32.00;29.00;19.00
77692;PMS5003;66984;47.404;18.836;2023-03-22T00:40:10;34.75;29.75;19.00
77692;PMS5003;66984;47.404;18.836;2023-03-22T00:41:18;42.25;34.50;23.00
77692;PMS5003;66984;47.404;18.836;2023-03-22T00:42:24;52.50;41.25;28.00
77692;PMS5003;66984;47.404;18.836;2023-03-22T00:43:27;57.50;47.75;32.25
77692;PMS5003;66984;47.404;18.836;2023-03-22T00:44:30;60.75;54.25;35.75
77692;PMS5003;66984;47.404;18.836;2023-03-22T00:45:33;62.25;58.00;38.00
77692;PMS5003;66984;47.404;18.836;2023-03-22T00:46:38;55.25;46.00;31.25
77692;PMS5003;66984;47.404;18.836;2023-03-22T00:47:41;49.25;40.00;27.00
77692;PMS5003;66984;47.404;18.836;2023-03-22T00:48:43;49.50;40.00;28.00
77692;PMS5003;66984;47.404;18.836;2023-03-22T00:49:46;47.00;38.00;26.00
77692;PMS5003;66984;47.404;18.836;2023-03-22T00:50:49;42.25;35.00;24.00
77692;PMS5003;66984;47.404;18.836;2023-03-22T00:51:52;38.00;32.00;22.00
77692;PMS5003;66984;47.404;18.836;2023-03-22T00:52:56;35.50;30.00;19.25
77692;PMS5003;66984;47.404;18.836;2023-03-22T00:53:58;37.00;31.25;21.00
77692;PMS5003;66984;47.404;18.836;2023-03-22T00:55:01;38.00;33.00;22.00
77692;PMS5003;66984;47.404;18.836;2023-03-22T00:56:04;43.50;36.50;24.75
77692;PMS5003;66984;47.404;18.836;2023-03-22T00:57:07;52.25;42.00;29.00
77692;PMS5003;66984;47.404;18.836;2023-03-22T00:58:10;50.75;41.00;28.00
77692;PMS5003;66984;47.404;18.836;2023-03-22T00:59:13;50.00;41.00;28.00
77692;PMS5003;66984;47.404;18.836;2023-03-22T01:00:16;48.00;39.00;27.00
77692;PMS5003;66984;47.404;18.836;2023-03-22T01:01:19;46.75;38.50;26.00
77692;PMS5003;66984;47.404;18.836;2023-03-22T01:02:21;45.50;37.75;25.00
77692;PMS5003;66984;47.404;18.836;2023-03-22T01:03:30;43.50;36.00;24.50
77692;PMS5003;66984;47.404;18.836;2023-03-22T01:04:34;39.00;32.50;22.00
77692;PMS5003;66984;47.404;18.836;2023-03-22T01:05:37;33.00;28.50;19.00
77692;PMS5003;66984;47.404;18.836;2023-03-22T01:06:40;30.00;27.00;18.00
77692;PMS5003;66984;47.404;18.836;2023-03-22T01:07:42;30.00;26.00;16.00
77692;PMS5003;66984;47.404;18.836;2023-03-22T01:08:46;28.75;26.00;16.50
77692;PMS5003;66984;47.404;18.836;2023-03-22T01:09:52;29.00;26.25;17.00
77692;PMS5003;66984;47.404;18.836;2023-03-22T01:10:54;32.50;27.00;18.00
77692;PMS5003;66984;47.404;18.836;2023-03-22T01:11:57;31.00;27.00;17.00
77692;PMS5003;66984;47.404;18.836;2023-03-22T01:13:00;32.00;28.00;18.00
77692;PMS5003;66984;47.404;18.836;2023-03-22T01:14:02;34.75;28.00;18.00
77692;PMS5003;66984;47.404;18.836;2023-03-22T01:15:05;31.00;27.00;17.00
77692;PMS5003;66984;47.404;18.836;2023-03-22T01:16:09;30.00;27.00;17.00
77692;PMS5003;66984;47.404;18.836;2023-03-22T01:17:12;31.00;28.00;18.00
77692;PMS5003;66984;47.404;18.836;2023-03-22T01:18:14;30.25;28.00;18.00
77692;PMS5003;66984;47.404;18.836;2023-03-22T01:19:17;30.75;27.00;18.00
77692;PMS5003;66984;47.404;18.836;2023-03-22T01:20:20;30.25;27.00;18.00
77692;PMS5003;66984;47.404;18.836;2023-03-22T01:21:23;31.00;27.00;18.00
77692;PMS5003;66984;47.404;18.836;2023-03-22T01:22:26;30.00;27.00;18.00
77692;PMS5003;66984;47.404;18.836;2023-03-22T01:23:29;27.50;26.00;17.00
77692;PMS5003;66984;47.404;18.836;2023-03-22T01:24:32;27.50;25.00;16.00
77692;PMS5003;66984;47.404;18.836;2023-03-22T01:25:34;27.50;25.25;16.00
77692;PMS5003;66984;47.404;18.836;2023-03-22T01:26:37;29.25;26.00;16.00
77692;PMS5003;66984;47.404;18.836;2023-03-22T01:27:40;28.75;26.25;16.00
77692;PMS5003;66984;47.404;18.836;2023-03-22T01:28:43;32.00;27.50;16.00
77692;PMS5003;66984;47.404;18.836;2023-03-22T01:29:45;32.00;28.00;17.00
77692;PMS5003;66984;47.404;18.836;2023-03-22T01:30:48;30.00;27.00;18.00
77692;PMS5003;66984;47.404;18.836;2023-03-22T01:31:52;32.25;27.25;18.00
77692;PMS5003;66984;47.404;18.836;2023-03-22T01:32:54;31.50;27.00;17.75
77692;PMS5003;66984;47.404;18.836;2023-03-22T01:33:57;30.00;27.00;18.00
77692;PMS5003;66984;47.404;18.836;2023-03-22T01:35:00;31.75;28.00;18.00
77692;PMS5003;66984;47.404;18.836;2023-03-22T01:36:03;33.00;28.00;18.00
77692;PMS5003;66984;47.404;18.836;2023-03-22T01:37:06;32.00;28.00;18.00
77692;PMS5003;66984;47.404;18.836;2023-03-22T01:38:08;31.00;27.00;16.00
77692;PMS5003;66984;47.404;18.836;2023-03-22T01:39:11;28.00;26.00;16.75
77692;PMS5003;66984;47.404;18.836;2023-03-22T01:40:14;27.25;24.00;18.00
77692;PMS5003;66984;47.404;18.836;2023-03-22T01:41:17;27.00;24.00;17.00
77692;PMS5003;66984;47.404;18.836;2023-03-22T01:42:20;28.00;25.75;16.50
77692;PMS5003;66984;47.404;18.836;2023-03-22T01:43:24;28.75;26.00;16.00
77692;PMS5003;66984;47.404;18.836;2023-03-22T01:44:28;25.50;24.00;16.00
77692;PMS5003;66984;47.404;18.836;2023-03-22T01:45:39;24.00;24.00;16.00
77692;PMS5003;66984;47.404;18.836;2023-03-22T01:46:54;25.50;24.00;15.50
77692;PMS5003;66984;47.404;18.836;2023-03-22T01:47:58;27.25;22.50;17.75
77692;PMS5003;66984;47.404;18.836;2023-03-22T01:49:05;25.25;22.00;16.00
77692;PMS5003;66984;47.404;18.836;2023-03-22T01:50:14;27.00;24.00;16.00
77692;PMS5003;66984;47.404;18.836;2023-03-22T01:51:20;26.50;26.00;17.00
77692;PMS5003;66984;47.404;18.836;2023-03-22T01:52:26;25.75;24.00;17.50
77692;PMS5003;66984;47.404;18.836;2023-03-22T01:53:29;26.75;25.00;17.00
77692;PMS5003;66984;47.404;18.836;2023-03-22T01:54:44;26.00;24.00;16.00
77692;PMS5003;66984;47.404;18.836;2023-03-22T01:55:50;26.00;24.00;16.00
77692;PMS5003;66984;47.404;18.836;2023-03-22T01:56:55;26.00;24.75;16.00
77692;PMS5003;66984;47.404;18.836;2023-03-22T01:57:58;26.50;25.00;16.00
77692;PMS5003;66984;47.404;18.836;2023-03-22T01:59:02;28.00;26.00;16.00
77692;PMS5003;66984;47.404;18.836;2023-03-22T02:00:07;28.00;26.00;15.00
77692;PMS5003;66984;47.404;18.836;2023-03-22T02:01:15;28.00;26.00;16.00
77692;PMS5003;66984;47.404;18.836;2023-03-22T02:02:17;28.00;26.00;17.00
77692;PMS5003;66984;47.404;18.836;2023-03-22T02:03:44;29.00;26.00;16.00
77692;PMS5003;66984;47.404;18.836;2023-03-22T02:04:52;32.00;27.00;17.25
77692;PMS5003;66984;47.404;18.836;2023-03-22T02:05:59;32.00;28.00;19.00
77692;PMS5003;66984;47.404;18.836;2023-03-22T02:07:03;30.50;26.00;17.00
77692;PMS5003;66984;47.404;18.836;2023-03-22T02:08:11;30.50;26.50;17.50
77692;PMS5003;66984;47.404;18.836;2023-03-22T02:09:16;28.00;26.00;17.00
77692;PMS5003;66984;47.404;18.836;2023-03-22T02:10:21;29.00;26.00;16.00
77692;PMS5003;66984;47.404;18.836;2023-03-22T02:11:28;32.00;28.00;16.75
77692;PMS5003;66984;47.404;18.836;2023-03-22T02:14:06;28.00;25.00;16.00
77692;PMS5003;66984;47.404;18.836;2023-03-22T02:15:21;29.50;25.50;16.00
77692;PMS5003;66984;47.404;18.836;2023-03-22T02:21:59;29.00;25.00;16.00
77692;PMS5003;66984;47.404;18.836;2023-03-22T02:25:03;24.75;24.00;15.00
77692;PMS5003;66984;47.404;18.836;2023-03-22T02:26:51;22.00;21.00;14.00
77692;PMS5003;66984;47.404;18.836;2023-03-22T02:29:40;24.50;23.25;12.75
77692;PMS5003;66984;47.404;18.836;2023-03-22T02:33:21;29.50;26.00;16.00
77692;PMS5003;66984;47.404;18.836;2023-03-22T02:45:52;24.50;23.00;15.00
77692;PMS5003;66984;47.404;18.836;2023-03-22T02:47:07;23.00;21.75;15.75
77692;PMS5003;66984;47.404;18.836;2023-03-22T02:49:28;24.00;23.00;14.00
77692;PMS5003;66984;47.404;18.836;2023-03-22T02:50:51;25.00;24.00;15.00
77692;PMS5003;66984;47.404;18.836;2023-03-22T02:52:40;25.00;22.00;14.00
77692;PMS5003;66984;47.404;18.836;2023-03-22T02:53:52;24.00;23.00;14.00
77692;PMS5003;66984;47.404;18.836;2023-03-22T02:58:39;24.00;23.00;14.00
77692;PMS5003;66984;47.404;18.836;2023-03-22T02:59:49;27.00;24.00;14.00
77692;PMS5003;66984;47.404;18.836;2023-03-22T03:00:56;25.00;23.00;14.00
77692;PMS5003;66984;47.404;18.836;2023-03-22T03:02:03;27.00;24.25;16.00
77692;PMS5003;66984;47.404;18.836;2023-03-22T03:03:08;25.75;24.00;16.00
77692;PMS5003;66984;47.404;18.836;2023-03-22T03:04:17;26.75;25.00;16.00
77692;PMS5003;66984;47.404;18.836;2023-03-22T03:05:23;30.00;25.00;16.00
77692;PMS5003;66984;47.404;18.836;2023-03-22T03:06:28;25.00;24.00;16.00
77692;PMS5003;66984;47.404;18.836;2023-03-22T03:07:34;28.00;25.00;16.00
77692;PMS5003;66984;47.404;18.836;2023-03-22T03:08:39;25.00;24.00;16.00
77692;PMS5003;66984;47.404;18.836;2023-03-22T03:09:42;25.00;24.00;16.00
77692;PMS5003;66984;47.404;18.836;2023-03-22T03:10:46;23.00;23.00;16.00
77692;PMS5003;66984;47.404;18.836;2023-03-22T03:11:50;25.75;25.50;16.25
77692;PMS5003;66984;47.404;18.836;2023-03-22T03:12:54;29.00;25.00;16.00
77692;PMS5003;66984;47.404;18.836;2023-03-22T03:13:57;27.00;25.00;16.00
77692;PMS5003;66984;47.404;18.836;2023-03-22T03:15:00;27.00;25.50;16.00
77692;PMS5003;66984;47.404;18.836;2023-03-22T03:16:02;29.50;25.50;16.00
77692;PMS5003;66984;47.404;18.836;2023-03-22T03:18:51;26.00;24.00;15.00
77692;PMS5003;66984;47.404;18.836;2023-03-22T03:21:32;29.00;26.25;16.00
77692;PMS5003;66984;47.404;18.836;2023-03-22T03:22:47;28.00;25.00;16.00
77692;PMS5003;66984;47.404;18.836;2023-03-22T03:24:01;23.50;23.25;16.00
77692;PMS5003;66984;47.404;18.836;2023-03-22T03:25:22;22.00;22.00;15.00
77692;PMS5003;66984;47.404;18.836;2023-03-22T03:29:38;21.75;21.75;13.00
77692;PMS5003;66984;47.404;18.836;2023-03-22T03:30:52;20.00;20.00;12.00
77692;PMS5003;66984;47.404;18.836;2023-03-22T03:32:05;22.00;20.50;12.00
77692;PMS5003;66984;47.404;18.836;2023-03-22T03:33:15;21.00;20.00;12.00
77692;PMS5003;66984;47.404;18.836;2023-03-22T03:34:23;20.00;18.75;12.25
77692;PMS5003;66984;47.404;18.836;2023-03-22T03:35:53;24.00;23.00;14.00
77692;PMS5003;66984;47.404;18.836;2023-03-22T03:37:04;20.00;20.00;13.00
77692;PMS5003;66984;47.404;18.836;2023-03-22T03:38:16;22.00;20.00;12.00
77692;PMS5003;66984;47.404;18.836;2023-03-22T03:39:23;21.75;20.50;11.50
77692;PMS5003;66984;47.404;18.836;2023-03-22T03:40:31;22.75;20.50;12.00
77692;PMS5003;66984;47.404;18.836;2023-03-22T03:41:37;25.00;22.00;13.00
77692;PMS5003;66984;47.404;18.836;2023-03-22T03:42:44;25.00;23.00;13.00
77692;PMS5003;66984;47.404;18.836;2023-03-22T03:43:51;25.75;24.25;15.00
77692;PMS5003;66984;47.404;18.836;2023-03-22T03:44:55;23.50;22.00;14.00
77692;PMS5003;66984;47.404;18.836;2023-03-22T03:45:57;22.00;21.50;14.00
77692;PMS5003;66984;47.404;18.836;2023-03-22T03:47:01;23.50;21.00;14.00
77692;PMS5003;66984;47.404;18.836;2023-03-22T03:48:10;22.75;21.00;13.50
77692;PMS5003;66984;47.404;18.836;2023-03-22T03:49:19;21.00;20.50;13.00
77692;PMS5003;66984;47.404;18.836;2023-03-22T03:50:24;20.75;20.00;13.00
77692;PMS5003;66984;47.404;18.836;2023-03-22T03:51:28;21.25;21.00;13.25
77692;PMS5003;66984;47.404;18.836;2023-03-22T03:52:31;21.75;19.75;14.00
77692;PMS5003;66984;47.404;18.836;2023-03-22T03:53:33;21.50;19.00;13.00
77692;PMS5003;66984;47.404;18.836;2023-03-22T03:54:36;22.50;21.75;14.00
77692;PMS5003;66984;47.404;18.836;2023-03-22T03:55:39;24.50;24.00;14.00
77692;PMS5003;66984;47.404;18.836;2023-03-22T03:56:42;23.00;23.00;15.00
77692;PMS5003;66984;47.404;18.836;2023-03-22T03:57:44;25.75;23.75;15.00
77692;PMS5003;66984;47.404;18.836;2023-03-22T03:58:47;26.50;25.25;16.00
77692;PMS5003;66984;47.404;18.836;2023-03-22T03:59:50;26.00;25.50;16.00
77692;PMS5003;66984;47.404;18.836;2023-03-22T04:00:52;26.75;26.00;15.00
77692;PMS5003;66984;47.404;18.836;2023-03-22T04:01:55;26.50;26.00;15.75
77692;PMS5003;66984;47.404;18.836;2023-03-22T04:02:58;25.00;24.00;16.00
77692;PMS5003;66984;47.404;18.836;2023-03-22T04:04:01;30.50;27.50;17.00
77692;PMS5003;66984;47.404;18.836;2023-03-22T04:05:03;35.00;30.00;18.50
77692;PMS5003;66984;47.404;18.836;2023-03-22T04:06:08;30.00;26.00;17.00
77692;PMS5003;66984;47.404;18.836;2023-03-22T04:07:11;26.00;25.50;16.00
77692;PMS5003;66984;47.404;18.836;2023-03-22T04:08:14;22.25;21.50;15.00
77692;PMS5003;66984;47.404;18.836;2023-03-22T04:09:16;23.00;22.00;15.00
77692;PMS5003;66984;47.404;18.836;2023-03-22T04:10:19;23.25;23.00;14.00
77692;PMS5003;66984;47.404;18.836;2023-03-22T04:11:22;24.00;23.00;15.00
77692;PMS5003;66984;47.404;18.836;2023-03-22T04:12:24;26.50;23.00;14.00
77692;PMS5003;66984;47.404;18.836;2023-03-22T04:13:27;25.00;24.00;15.00
77692;PMS5003;66984;47.404;18.836;2023-03-22T04:14:31;25.00;24.00;14.75
77692;PMS5003;66984;47.404;18.836;2023-03-22T04:15:33;26.00;24.00;15.00
77692;PMS5003;66984;47.404;18.836;2023-03-22T04:16:36;26.00;23.00;15.00
77692;PMS5003;66984;47.404;18.836;2023-03-22T04:17:39;24.00;22.00;14.00
77692;PMS5003;66984;47.404;18.836;2023-03-22T04:18:42;24.00;21.50;14.00
77692;PMS5003;66984;47.404;18.836;2023-03-22T04:19:45;25.00;24.00;16.00
77692;PMS5003;66984;47.404;18.836;2023-03-22T04:20:47;25.50;24.00;14.25
77692;PMS5003;66984;47.404;18.836;2023-03-22T04:21:50;23.75;22.00;15.00
77692;PMS5003;66984;47.404;18.836;2023-03-22T04:22:54;23.00;22.00;15.00
77692;PMS5003;66984;47.404;18.836;2023-03-22T04:23:57;24.50;23.50;14.00
77692;PMS5003;66984;47.404;18.836;2023-03-22T04:25:00;26.00;23.25;15.00
77692;PMS5003;66984;47.404;18.836;2023-03-22T04:26:02;26.00;24.00;15.00
77692;PMS5003;66984;47.404;18.836;2023-03-22T04:27:07;26.00;24.00;14.00
77692;PMS5003;66984;47.404;18.836;2023-03-22T04:28:10;25.00;24.00;14.00
77692;PMS5003;66984;47.404;18.836;2023-03-22T04:29:14;26.00;23.50;14.00
77692;PMS5003;66984;47.404;18.836;2023-03-22T04:30:17;25.00;23.75;14.00
77692;PMS5003;66984;47.404;18.836;2023-03-22T04:31:21;25.75;24.00;14.00
77692;PMS5003;66984;47.404;18.836;2023-03-22T04:32:24;26.50;24.00;13.00
77692;PMS5003;66984;47.404;18.836;2023-03-22T04:33:26;24.25;23.00;14.00
77692;PMS5003;66984;47.404;18.836;2023-03-22T04:34:29;26.00;24.00;14.75
77692;PMS5003;66984;47.404;18.836;2023-03-22T04:35:33;29.00;26.00;17.25
77692;PMS5003;66984;47.404;18.836;2023-03-22T04:36:36;30.75;26.00;17.00
77692;PMS5003;66984;47.404;18.836;2023-03-22T04:37:40;28.25;26.00;17.00
77692;PMS5003;66984;47.404;18.836;2023-03-22T04:38:44;27.00;26.00;17.50
77692;PMS5003;66984;47.404;18.836;2023-03-22T04:39:47;26.50;25.50;16.00
77692;PMS5003;66984;47.404;18.836;2023-03-22T04:40:49;28.00;26.00;17.00
77692;PMS5003;66984;47.404;18.836;2023-03-22T04:41:52;26.00;24.75;16.00
77692;PMS5003;66984;47.404;18.836;2023-03-22T04:42:55;25.75;24.00;16.00
77692;PMS5003;66984;47.404;18.836;2023-03-22T04:43:58;26.25;23.25;15.00
77692;PMS5003;66984;47.404;18.836;2023-03-22T04:45:04;26.50;26.00;16.00
77692;PMS5003;66984;47.404;18.836;2023-03-22T04:46:08;25.75;24.00;16.00
77692;PMS5003;66984;47.404;18.836;2023-03-22T04:47:11;24.00;22.00;16.00
77692;PMS5003;66984;47.404;18.836;2023-03-22T04:48:14;25.75;24.00;16.00
77692;PMS5003;66984;47.404;18.836;2023-03-22T04:49:16;27.00;25.00;16.00
77692;PMS5003;66984;47.404;18.836;2023-03-22T04:50:19;26.75;25.00;16.00
77692;PMS5003;66984;47.404;18.836;2023-03-22T04:51:22;27.50;24.00;15.00
77692;PMS5003;66984;47.404;18.836;2023-03-22T04:52:24;27.00;25.00;16.00
77692;PMS5003;66984;47.404;18.836;2023-03-22T04:53:27;26.00;24.25;16.00
77692;PMS5003;66984;47.404;18.836;2023-03-22T04:54:30;25.25;24.00;16.00
77692;PMS5003;66984;47.404;18.836;2023-03-22T04:55:33;24.00;23.25;15.25
77692;PMS5003;66984;47.404;18.836;2023-03-22T04:56:36;25.00;24.00;16.00
77692;PMS5003;66984;47.404;18.836;2023-03-22T04:57:38;26.75;24.75;16.00
77692;PMS5003;66984;47.404;18.836;2023-03-22T04:58:41;26.25;24.75;16.00
77692;PMS5003;66984;47.404;18.836;2023-03-22T04:59:45;25.00;23.00;15.00
77692;PMS5003;66984;47.404;18.836;2023-03-22T05:00:48;24.00;24.00;16.00
77692;PMS5003;66984;47.404;18.836;2023-03-22T05:01:51;26.00;25.00;16.00
77692;PMS5003;66984;47.404;18.836;2023-03-22T05:02:54;26.50;25.00;16.00
77692;PMS5003;66984;47.404;18.836;2023-03-22T05:03:57;27.00;24.00;16.00
77692;PMS5003;66984;47.404;18.836;2023-03-22T05:05:00;26.75;24.00;16.00
77692;PMS5003;66984;47.404;18.836;2023-03-22T05:06:03;26.50;24.00;16.00
77692;PMS5003;66984;47.404;18.836;2023-03-22T05:07:08;26.00;24.00;15.00
77692;PMS5003;66984;47.404;18.836;2023-03-22T05:08:11;23.00;22.50;14.00
77692;PMS5003;66984;47.404;18.836;2023-03-22T05:09:15;26.00;24.00;16.00
77692;PMS5003;66984;47.404;18.836;2023-03-22T05:10:18;26.25;24.00;15.50
77692;PMS5003;66984;47.404;18.836;2023-03-22T05:11:20;26.50;25.00;16.00
77692;PMS5003;66984;47.404;18.836;2023-03-22T05:12:25;26.50;24.50;16.00
77692;PMS5003;66984;47.404;18.836;2023-03-22T05:13:28;27.75;24.75;16.00
77692;PMS5003;66984;47.404;18.836;2023-03-22T05:14:30;25.00;23.00;16.00
77692;PMS5003;66984;47.404;18.836;2023-03-22T05:15:33;28.00;24.00;16.00
77692;PMS5003;66984;47.404;18.836;2023-03-22T05:16:36;27.00;25.00;16.00
77692;PMS5003;66984;47.404;18.836;2023-03-22T05:17:41;26.50;24.00;16.00
77692;PMS5003;66984;47.404;18.836;2023-03-22T05:18:44;25.25;24.00;16.00
77692;PMS5003;66984;47.404;18.836;2023-03-22T05:19:47;26.75;25.00;15.00
77692;PMS5003;66984;47.404;18.836;2023-03-22T05:20:49;28.00;26.00;16.00
77692;PMS5003;66984;47.404;18.836;2023-03-22T05:21:52;27.00;25.00;16.00
77692;PMS5003;66984;47.404;18.836;2023-03-22T05:22:59;29.00;24.25;16.00
77692;PMS5003;66984;47.404;18.836;2023-03-22T05:24:04;27.75;25.00;15.50
77692;PMS5003;66984;47.404;18.836;2023-03-22T05:25:08;25.75;24.00;15.00
77692;PMS5003;66984;47.404;18.836;2023-03-22T05:26:11;26.00;24.00;14.75
77692;PMS5003;66984;47.404;18.836;2023-03-22T05:27:16;25.25;24.00;15.00
77692;PMS5003;66984;47.404;18.836;2023-03-22T05:28:32;26.50;26.00;15.50
77692;PMS5003;66984;47.404;18.836;2023-03-22T05:29:35;28.00;25.00;16.00
77692;PMS5003;66984;47.404;18.836;2023-03-22T05:30:38;27.50;26.00;16.00
77692;PMS5003;66984;47.404;18.836;2023-03-22T05:31:42;28.00;25.00;16.00
77692;PMS5003;66984;47.404;18.836;2023-03-22T05:32:45;29.00;26.00;16.00
77692;PMS5003;66984;47.404;18.836;2023-03-22T05:33:49;27.00;25.00;17.00
77692;PMS5003;66984;47.404;18.836;2023-03-22T05:34:55;28.00;26.25;16.00
77692;PMS5003;66984;47.404;18.836;2023-03-22T05:35:57;28.25;26.00;16.00
77692;PMS5003;66984;47.404;18.836;2023-03-22T05:37:01;27.50;24.00;16.00
77692;PMS5003;66984;47.404;18.836;2023-03-22T05:38:04;24.50;23.00;16.00
77692;PMS5003;66984;47.404;18.836;2023-03-22T05:39:07;26.25;25.00;16.00
77692;PMS5003;66984;47.404;18.836;2023-03-22T05:40:10;26.75;23.00;16.00
77692;PMS5003;66984;47.404;18.836;2023-03-22T05:41:14;25.00;23.00;15.00
77692;PMS5003;66984;47.404;18.836;2023-03-22T05:42:17;26.25;24.00;15.00
77692;PMS5003;66984;47.404;18.836;2023-03-22T05:43:19;29.50;25.00;15.00
77692;PMS5003;66984;47.404;18.836;2023-03-22T05:44:22;27.50;25.00;16.00
77692;PMS5003;66984;47.404;18.836;2023-03-22T05:45:25;28.00;26.00;16.00
77692;PMS5003;66984;47.404;18.836;2023-03-22T05:46:28;25.75;24.00;15.00
77692;PMS5003;66984;47.404;18.836;2023-03-22T05:47:30;28.00;24.00;16.00
77692;PMS5003;66984;47.404;18.836;2023-03-22T05:48:34;26.00;24.00;16.00
77692;PMS5003;66984;47.404;18.836;2023-03-22T05:49:37;26.00;24.00;16.00
77692;PMS5003;66984;47.404;18.836;2023-03-22T05:50:40;26.00;24.00;16.00
77692;PMS5003;66984;47.404;18.836;2023-03-22T05:51:42;25.00;24.00;16.00
77692;PMS5003;66984;47.404;18.836;2023-03-22T05:52:45;25.00;24.00;16.00
77692;PMS5003;66984;47.404;18.836;2023-03-22T05:53:49;26.50;24.25;15.00
77692;PMS5003;66984;47.404;18.836;2023-03-22T05:54:54;28.00;24.50;15.00
77692;PMS5003;66984;47.404;18.836;2023-03-22T05:55:58;28.00;25.00;14.00
77692;PMS5003;66984;47.404;18.836;2023-03-22T05:57:03;25.00;23.00;14.00
77692;PMS5003;66984;47.404;18.836;2023-03-22T05:58:06;28.50;26.00;16.00
77692;PMS5003;66984;47.404;18.836;2023-03-22T05:59:09;28.00;25.50;16.00
77692;PMS5003;66984;47.404;18.836;2023-03-22T06:00:13;28.50;25.00;16.00
77692;PMS5003;66984;47.404;18.836;2023-03-22T06:01:18;28.50;26.00;18.00
77692;PMS5003;66984;47.404;18.836;2023-03-22T06:02:22;29.00;25.00;17.75
77692;PMS5003;66984;47.404;18.836;2023-03-22T06:03:26;28.50;26.00;16.50
77692;PMS5003;66984;47.404;18.836;2023-03-22T06:04:29;28.75;26.00;16.00
77692;PMS5003;66984;47.404;18.836;2023-03-22T06:05:32;31.00;27.00;16.00
77692;PMS5003;66984;47.404;18.836;2023-03-22T06:06:37;34.50;28.25;17.00
77692;PMS5003;66984;47.404;18.836;2023-03-22T06:07:40;31.75;27.00;17.00
77692;PMS5003;66984;47.404;18.836;2023-03-22T06:08:43;30.00;25.50;17.00
77692;PMS5003;66984;47.404;18.836;2023-03-22T06:09:46;29.00;26.00;16.00
77692;PMS5003;66984;47.404;18.836;2023-03-22T06:10:51;31.00;27.00;16.00
77692;PMS5003;66984;47.404;18.836;2023-03-22T06:11:54;31.00;28.00;18.00
77692;PMS5003;66984;47.404;18.836;2023-03-22T06:12:56;33.00;28.50;18.00
77692;PMS5003;66984;47.404;18.836;2023-03-22T06:13:59;31.75;29.00;17.00
77692;PMS5003;66984;47.404;18.836;2023-03-22T06:15:02;29.00;26.00;16.25
77692;PMS5003;66984;47.404;18.836;2023-03-22T06:16:06;28.00;26.00;18.00
77692;PMS5003;66984;47.404;18.836;2023-03-22T06:17:09;30.25;27.25;17.00
77692;PMS5003;66984;47.404;18.836;2023-03-22T06:18:13;32.00;28.00;18.00
77692;PMS5003;66984;47.404;18.836;2023-03-22T06:19:15;34.00;29.00;18.00
77692;PMS5003;66984;47.404;18.836;2023-03-22T06:20:18;34.00;29.00;19.00
77692;PMS5003;66984;47.404;18.836;2023-03-22T06:21:21;32.50;27.50;18.00
77692;PMS5003;66984;47.404;18.836;2023-03-22T06:22:24;32.00;29.00;18.50
77692;PMS5003;66984;47.404;18.836;2023-03-22T06:23:27;33.00;29.75;18.75
77692;PMS5003;66984;47.404;18.836;2023-03-22T06:24:29;33.00;29.00;19.00
77692;PMS5003;66984;47.404;18.836;2023-03-22T06:25:32;33.25;29.00;18.00
77692;PMS5003;66984;47.404;18.836;2023-03-22T06:26:35;35.00;29.00;18.00
77692;PMS5003;66984;47.404;18.836;2023-03-22T06:27:38;32.00;27.00;18.00
77692;PMS5003;66984;47.404;18.836;2023-03-22T06:28:40;34.50;29.00;19.00
77692;PMS5003;66984;47.404;18.836;2023-03-22T06:29:43;37.25;30.00;18.00
77692;PMS5003;66984;47.404;18.836;2023-03-22T06:30:51;34.00;29.00;18.00
77692;PMS5003;66984;47.404;18.836;2023-03-22T06:31:53;34.00;29.00;18.00
77692;PMS5003;66984;47.404;18.836;2023-03-22T06:32:56;33.25;29.00;18.00
77692;PMS5003;66984;47.404;18.836;2023-03-22T06:34:02;34.00;28.75;18.50